Time;durP1;ratioP1;P1;durP2;ratioP2;P2;SDS_P1;SDS_P2;PMS_P1;PMS_P2;Temp;Humidity;BMP_temperature;BMP_pressure;BME280_temperature;BME280_humidity;BME280_pressure;Samples;Min_cycle;Max_cycle;Signal;HPM_P1;HPM_P2
2023/12/01 00:00:44;;;;;;;18.70;7.45;;;6.00;98.00;;;;;;10482067;28;20020;-67
2023/12/01 00:05:45;;;;;;;21.50;8.10;;;6.00;98.00;;;;;;10477925;28;20500;-67
2023/12/01 00:10:45;;;;;;;20.45;7.93;;;6.00;98.00;;;;;;10479564;28;20469;-66
2023/12/01 00:15:46;;;;;;;19.77;7.72;;;6.00;98.00;;;;;;10474481;28;20017;-67
2023/12/01 00:20:46;;;;;;;20.05;7.93;;;6.00;98.00;;;;;;10489915;28;20021;-67
2023/12/01 00:25:47;;;;;;;18.48;8.38;;;6.00;98.00;;;;;;10483284;28;20052;-67
2023/12/01 00:30:48;;;;;;;17.05;7.20;;;6.00;98.00;;;;;;10489118;28;20021;-67
2023/12/01 00:35:49;;;;;;;17.83;7.25;;;6.00;97.90;;;;;;10487365;28;20320;-67
2023/12/01 00:40:50;;;;;;;19.77;7.55;;;6.00;98.00;;;;;;10486823;28;20013;-67
2023/12/01 00:45:50;;;;;;;18.90;7.43;;;6.00;97.90;;;;;;10492593;28;20017;-67
2023/12/01 00:50:52;;;;;;;20.70;8.15;;;6.00;97.90;;;;;;10489562;28;20013;-67
2023/12/01 00:55:52;;;;;;;18.90;7.65;;;6.00;97.90;;;;;;10478791;28;20103;-66
2023/12/01 01:00:53;;;;;;;19.23;7.32;;;6.00;97.90;;;;;;10479932;28;20103;-66
2023/12/01 01:05:54;;;;;;;16.27;7.50;;;6.00;97.90;;;;;;10473353;28;20056;-66
2023/12/01 01:10:54;;;;;;;19.08;7.80;;;6.00;97.90;;;;;;10489261;28;20085;-66
2023/12/01 01:15:55;;;;;;;21.80;8.10;;;6.00;97.90;;;;;;10495900;28;20016;-66
2023/12/01 01:20:56;;;;;;;16.08;6.63;;;6.00;97.90;;;;;;10488270;28;20021;-67
2023/12/01 01:25:56;;;;;;;17.10;6.75;;;6.00;97.90;;;;;;10489859;28;20023;-66
2023/12/01 01:30:57;;;;;;;21.23;7.30;;;6.00;97.90;;;;;;10489565;28;20020;-66
2023/12/01 01:35:58;;;;;;;21.45;6.50;;;6.00;97.90;;;;;;10501238;28;20055;-67
2023/12/01 01:40:58;;;;;;;18.17;7.43;;;6.00;97.90;;;;;;10491830;28;20103;-67
2023/12/01 01:46:05;;;;;;;18.20;7.25;;;5.90;97.90;;;;;;10485023;28;20035;-66
2023/12/01 01:51:08;;;;;;;16.98;7.40;;;5.90;97.90;;;;;;10483958;28;20091;-67
2023/12/01 01:56:12;;;;;;;20.33;6.78;;;5.90;97.90;;;;;;10489461;28;20040;-67
2023/12/01 02:01:12;;;;;;;20.63;7.30;;;5.90;97.90;;;;;;10488535;28;20036;-67
2023/12/01 02:06:13;;;;;;;18.65;8.32;;;5.90;97.90;;;;;;10497860;28;20369;-66
2023/12/01 02:11:14;;;;;;;19.75;6.80;;;5.90;97.90;;;;;;10489806;28;20194;-67
2023/12/01 02:16:14;;;;;;;16.25;6.47;;;5.90;97.90;;;;;;10503688;28;20078;-66
2023/12/01 02:21:15;;;;;;;16.05;6.90;;;5.90;97.90;;;;;;10490817;28;20032;-67
2023/12/01 02:26:15;;;;;;;15.00;6.53;;;5.90;97.90;;;;;;10492102;28;20384;-67
2023/12/01 02:31:16;;;;;;;19.08;6.60;;;5.90;97.90;;;;;;10491288;28;20355;-67
2023/12/01 02:36:17;;;;;;;17.20;6.53;;;5.90;97.90;;;;;;10489393;28;20020;-66
2023/12/01 02:41:18;;;;;;;16.73;6.63;;;5.90;97.90;;;;;;10486191;28;20016;-67
2023/12/01 02:46:22;;;;;;;17.67;7.15;;;5.90;97.90;;;;;;10470848;28;20020;-67
2023/12/01 02:51:24;;;;;;;18.25;7.05;;;5.90;97.90;;;;;;10493762;28;20049;-66
2023/12/01 02:56:24;;;;;;;15.40;5.82;;;5.90;97.90;;;;;;10485020;28;20039;-67
2023/12/01 03:01:25;;;;;;;14.25;6.40;;;5.90;97.90;;;;;;10491787;28;20047;-66
2023/12/01 03:06:26;;;;;;;18.17;6.32;;;5.90;97.90;;;;;;10482733;28;20059;-67
2023/12/01 03:11:27;;;;;;;17.15;6.65;;;5.90;97.90;;;;;;10481923;28;20033;-67
2023/12/01 03:16:27;;;;;;;19.95;6.43;;;5.90;97.90;;;;;;10486451;28;20032;-66
2023/12/01 03:21:28;;;;;;;14.57;5.47;;;5.90;97.80;;;;;;10486978;28;20061;-67
2023/12/01 03:26:28;;;;;;;18.15;5.93;;;5.90;97.90;;;;;;10489719;28;20042;-66
2023/12/01 03:31:29;;;;;;;15.77;6.60;;;5.90;97.80;;;;;;10490385;28;20031;-67
2023/12/01 03:36:30;;;;;;;15.73;5.55;;;5.90;97.80;;;;;;10487160;28;20102;-67
2023/12/01 03:41:30;;;;;;;13.82;5.90;;;5.80;97.80;;;;;;10498475;28;20069;-67
2023/12/01 03:46:31;;;;;;;15.48;5.55;;;5.80;97.80;;;;;;10483110;28;20032;-67
2023/12/01 03:51:31;;;;;;;16.73;5.53;;;5.80;97.80;;;;;;10489159;28;20032;-67
2023/12/01 03:56:36;;;;;;;14.27;5.78;;;5.80;97.80;;;;;;10487739;28;20029;-67
2023/12/01 04:01:38;;;;;;;14.88;5.68;;;5.80;97.80;;;;;;10489081;28;20113;-67
2023/12/01 04:06:42;;;;;;;14.23;5.35;;;5.80;97.80;;;;;;10495878;28;20081;-67
2023/12/01 04:11:42;;;;;;;13.30;5.35;;;5.80;97.80;;;;;;10487301;28;20119;-67
2023/12/01 04:16:43;;;;;;;15.77;6.38;;;5.80;97.70;;;;;;10485016;28;20391;-67
2023/12/01 04:21:43;;;;;;;14.80;5.30;;;5.80;97.70;;;;;;10493450;28;20383;-66
2023/12/01 04:26:44;;;;;;;14.85;5.32;;;5.80;97.70;;;;;;10499012;28;20079;-67
2023/12/01 04:31:44;;;;;;;13.68;5.50;;;5.80;97.70;;;;;;10482052;28;20028;-67
2023/12/01 04:36:45;;;;;;;13.13;5.30;;;5.70;97.70;;;;;;10498813;28;20028;-67
2023/12/01 04:41:45;;;;;;;14.80;5.38;;;5.70;97.70;;;;;;10491670;28;20073;-66
2023/12/01 04:46:46;;;;;;;12.77;4.93;;;5.70;97.70;;;;;;10502505;28;20441;-67
2023/12/01 04:51:47;;;;;;;12.27;5.05;;;5.70;97.60;;;;;;10499974;28;20520;-66
2023/12/01 04:56:47;;;;;;;14.13;5.57;;;5.70;97.60;;;;;;10492441;28;20393;-67
2023/12/01 05:01:48;;;;;;;14.32;5.20;;;5.70;97.60;;;;;;10483097;28;20432;-67
2023/12/01 05:06:48;;;;;;;12.77;5.20;;;5.70;97.60;;;;;;10481961;28;20040;-66
2023/12/01 05:11:49;;;;;;;12.32;4.88;;;5.70;97.60;;;;;;10483828;28;20557;-66
2023/12/01 05:16:50;;;;;;;11.80;4.70;;;5.70;97.60;;;;;;10487362;28;20056;-67
2023/12/01 05:21:50;;;;;;;11.55;4.60;;;5.70;97.60;;;;;;10490685;28;20070;-67
2023/12/01 05:26:51;;;;;;;10.15;4.13;;;5.70;97.60;;;;;;10483778;28;20044;-66
2023/12/01 05:31:51;;;;;;;12.07;4.63;;;5.70;97.60;;;;;;10493960;28;20036;-67
2023/12/01 05:36:52;;;;;;;12.07;4.88;;;5.60;97.60;;;;;;10486963;28;20094;-67
2023/12/01 05:41:52;;;;;;;10.73;5.03;;;5.60;97.50;;;;;;10486599;28;20119;-67
2023/12/01 05:46:53;;;;;;;13.13;4.78;;;5.60;97.50;;;;;;10492069;28;20028;-67
2023/12/01 05:51:54;;;;;;;12.75;4.90;;;5.60;97.50;;;;;;10488796;28;20036;-67
2023/12/01 05:56:55;;;;;;;10.68;4.28;;;5.60;97.50;;;;;;10481377;28;20392;-67
2023/12/01 06:01:57;;;;;;;11.77;4.78;;;5.60;97.50;;;;;;10486594;28;20024;-67
2023/12/01 06:06:57;;;;;;;9.77;4.50;;;5.60;97.40;;;;;;10499263;28;20043;-66
2023/12/01 06:11:58;;;;;;;12.38;4.85;;;5.60;97.40;;;;;;10490178;28;20036;-66
2023/12/01 06:16:58;;;;;;;11.65;4.78;;;5.50;97.40;;;;;;10485331;28;20024;-67
2023/12/01 06:21:59;;;;;;;12.00;5.20;;;5.50;97.40;;;;;;10486547;28;20021;-67
2023/12/01 06:27:04;;;;;;;12.60;4.85;;;5.50;97.40;;;;;;10500620;28;20032;-67
2023/12/01 06:32:04;;;;;;;12.93;5.13;;;5.50;97.40;;;;;;10502446;28;20500;-67
2023/12/01 06:37:05;;;;;;;11.70;5.15;;;5.50;97.40;;;;;;10490767;28;20024;-66
2023/12/01 06:42:06;;;;;;;11.07;5.28;;;5.40;97.30;;;;;;10494551;28;20018;-66
2023/12/01 06:47:06;;;;;;;13.98;5.35;;;5.40;97.30;;;;;;10488330;28;20036;-67
2023/12/01 06:52:08;;;;;;;17.02;6.30;;;5.40;97.30;;;;;;10490531;28;20136;-67
2023/12/01 06:57:08;;;;;;;13.65;5.32;;;5.40;97.30;;;;;;10492114;28;20070;-66
2023/12/01 07:02:09;;;;;;;10.50;5.03;;;5.40;97.20;;;;;;10471425;28;20128;-66
2023/12/01 07:07:12;;;;;;;15.52;5.72;;;5.40;97.20;;;;;;10477206;28;20026;-66
2023/12/01 07:12:12;;;;;;;13.23;5.50;;;5.30;97.20;;;;;;10475076;28;20505;-66
2023/12/01 07:17:13;;;;;;;14.57;6.20;;;5.30;97.20;;;;;;10475078;28;20033;-69
2023/12/01 07:22:14;;;;;;;14.25;5.45;;;5.30;97.10;;;;;;10480740;28;20041;-67
2023/12/01 07:27:15;;;;;;;11.90;5.45;;;5.40;97.10;;;;;;10493759;28;20568;-67
2023/12/01 07:32:15;;;;;;;11.73;5.30;;;5.40;97.10;;;;;;10484084;28;20370;-67
2023/12/01 07:37:16;;;;;;;15.32;6.53;;;5.30;97.00;;;;;;10487234;28;20039;-67
2023/12/01 07:42:17;;;;;;;15.90;5.72;;;5.30;97.00;;;;;;10477417;28;20393;-67
2023/12/01 07:47:18;;;;;;;13.32;5.82;;;5.30;97.00;;;;;;10483640;28;20036;-66
2023/12/01 07:52:19;;;;;;;16.05;6.22;;;5.30;97.00;;;;;;10491280;28;20032;-67
2023/12/01 07:57:20;;;;;;;14.10;5.93;;;5.20;96.90;;;;;;10478126;28;20380;-67
2023/12/01 08:02:21;;;;;;;14.23;5.85;;;5.30;96.90;;;;;;10483445;28;20033;-67
2023/12/01 08:07:21;;;;;;;14.52;6.03;;;5.20;96.80;;;;;;10486510;28;20163;-67
2023/12/01 08:12:24;;;;;;;15.60;6.75;;;5.20;96.80;;;;;;10482579;28;20533;-67
2023/12/01 08:17:24;;;;;;;13.70;5.88;;;5.20;96.70;;;;;;10483073;28;20393;-67
2023/12/01 08:22:25;;;;;;;14.50;5.80;;;5.20;96.70;;;;;;10480841;28;20028;-67
2023/12/01 08:27:26;;;;;;;14.75;6.15;;;5.20;96.60;;;;;;10472636;28;20112;-67
2023/12/01 08:32:26;;;;;;;15.73;6.25;;;5.20;96.60;;;;;;10492059;28;20031;-67
2023/12/01 08:37:27;;;;;;;17.27;5.97;;;5.20;96.60;;;;;;10482981;28;20030;-67
2023/12/01 08:42:27;;;;;;;16.50;6.90;;;5.20;96.60;;;;;;10486837;28;20031;-67
2023/12/01 08:47:28;;;;;;;16.33;6.55;;;5.20;96.50;;;;;;10484343;28;20032;-67
2023/12/01 08:52:28;;;;;;;15.45;6.20;;;5.20;96.50;;;;;;10484527;28;20111;-67
2023/12/01 08:57:29;;;;;;;17.55;7.03;;;5.30;96.50;;;;;;10485766;28;20055;-67
2023/12/01 09:02:30;;;;;;;16.30;6.18;;;5.30;96.40;;;;;;10489732;28;20507;-72
2023/12/01 09:07:30;;;;;;;17.80;6.60;;;5.30;96.40;;;;;;10489101;28;20035;-69
2023/12/01 09:12:31;;;;;;;16.50;6.60;;;5.30;96.30;;;;;;10475227;28;20061;-70
2023/12/01 09:17:32;;;;;;;14.30;6.03;;;5.40;96.40;;;;;;10487767;28;20020;-69
2023/12/01 09:22:32;;;;;;;16.08;6.22;;;5.40;96.30;;;;;;10505811;28;20081;-69
2023/12/01 09:27:33;;;;;;;14.35;6.63;;;5.40;96.30;;;;;;10493863;28;20039;-67
2023/12/01 09:32:33;;;;;;;15.75;6.07;;;5.40;96.40;;;;;;10482515;28;20024;-67
2023/12/01 09:37:34;;;;;;;19.08;6.35;;;5.40;96.40;;;;;;10501449;28;20020;-67
2023/12/01 09:42:38;;;;;;;16.42;7.13;;;5.40;96.40;;;;;;10491225;28;20576;-68
2023/12/01 09:47:46;;;;;;;19.15;6.90;;;5.50;96.40;;;;;;10494789;28;20032;-68
2023/12/01 09:52:46;;;;;;;17.33;6.97;;;5.50;96.30;;;;;;10485775;28;20218;-68
2023/12/01 09:57:48;;;;;;;18.25;7.07;;;5.50;96.30;;;;;;10495153;28;20033;-66
2023/12/01 10:02:49;;;;;;;23.48;6.30;;;5.50;96.60;;;;;;10485122;28;20530;-67
2023/12/01 10:07:50;;;;;;;15.35;6.47;;;5.70;96.60;;;;;;10482197;28;20037;-67
2023/12/01 10:12:55;;;;;;;17.02;6.55;;;5.80;96.30;;;;;;10484582;28;20078;-67
2023/12/01 10:18:10;;;;;;;15.40;6.28;;;5.70;96.20;;;;;;10483073;28;20017;-68
2023/12/01 10:23:19;;;;;;;18.30;7.10;;;5.80;96.20;;;;;;10474626;28;20078;-68
2023/12/01 10:28:20;;;;;;;18.85;6.60;;;5.80;96.20;;;;;;10473795;28;20119;-67
2023/12/01 10:33:21;;;;;;;18.08;7.05;;;5.80;96.20;;;;;;10476427;28;20035;-67
2023/12/01 10:38:25;;;;;;;18.00;6.97;;;5.80;96.10;;;;;;10475227;28;20104;-67
2023/12/01 10:43:27;;;;;;;16.50;6.38;;;5.80;96.10;;;;;;10479443;28;20135;-68
2023/12/01 10:48:29;;;;;;;18.48;6.97;;;5.80;96.00;;;;;;10482749;28;20513;-67
2023/12/01 10:53:30;;;;;;;19.15;6.93;;;5.80;96.00;;;;;;10480318;28;20029;-68
2023/12/01 10:58:36;;;;;;;18.85;6.75;;;5.80;95.90;;;;;;10481320;28;20055;-68
2023/12/01 11:03:40;;;;;;;15.60;6.85;;;5.90;95.90;;;;;;10484461;28;20021;-68
2023/12/01 11:08:57;;;;;;;15.07;5.53;;;5.90;95.90;;;;;;10478996;28;20029;-68
2023/12/01 11:14:18;;;;;;;14.52;5.25;;;6.00;95.80;;;;;;10480481;28;20032;-68
2023/12/01 11:19:22;;;;;;;16.13;6.13;;;6.00;95.80;;;;;;10487206;28;20400;-68
2023/12/01 11:24:39;;;;;;;14.00;5.25;;;6.00;95.80;;;;;;10482727;28;20034;-69
2023/12/01 11:29:57;;;;;;;14.55;5.72;;;6.00;95.90;;;;;;10477864;28;20557;-69
2023/12/01 11:35:06;;;;;;;14.68;5.53;;;6.10;96.00;;;;;;10468312;28;20119;-69
2023/12/01 11:40:20;;;;;;;;;;;6.10;96.00;;;;;;10478641;28;20036;-68
2023/12/01 11:45:41;;;;;;;15.57;5.25;;;6.10;96.10;;;;;;10484582;28;19975;-68
2023/12/01 11:50:42;;;;;;;12.07;5.38;;;6.10;96.00;;;;;;10476031;28;20020;-69
2023/12/01 11:55:43;;;;;;;18.25;5.63;;;6.00;96.00;;;;;;10496723;28;20392;-69
2023/12/01 12:00:43;;;;;;;13.27;6.22;;;6.00;96.00;;;;;;10477356;28;20592;-69
2023/12/01 12:05:45;;;;;;;21.85;5.57;;;6.00;96.00;;;;;;10479440;28;20399;-69
2023/12/01 12:10:46;;;;;;;11.32;4.80;;;6.00;96.00;;;;;;10484205;28;20218;-69
2023/12/01 12:15:46;;;;;;;11.13;4.65;;;6.00;96.00;;;;;;10486074;28;20507;-68
2023/12/01 12:20:47;;;;;;;13.60;5.63;;;6.00;96.00;;;;;;10482018;28;20024;-68
2023/12/01 12:25:50;;;;;;;10.30;4.80;;;6.00;96.00;;;;;;10477976;28;20111;-69
2023/12/01 12:30:54;;;;;;;11.00;4.90;;;6.00;96.10;;;;;;10484628;28;20025;-75
2023/12/01 12:35:55;;;;;;;14.63;5.13;;;6.00;96.10;;;;;;10476824;28;20056;-69
2023/12/01 12:40:56;;;;;;;12.77;4.95;;;5.40;96.00;;;;;;10481096;28;20043;-68
2023/12/01 12:46:03;;;;;;;12.07;5.57;;;5.40;96.30;;;;;;10483459;28;20491;-69
2023/12/01 12:51:04;;;;;;;11.18;5.35;;;5.50;96.30;;;;;;10480111;28;20372;-68
2023/12/01 12:56:13;;;;;;;10.93;4.93;;;5.60;96.20;;;;;;10471690;28;20495;-67
2023/12/01 13:01:14;;;;;;;11.88;5.13;;;5.70;96.10;;;;;;10473929;28;20389;-67
2023/12/01 13:06:15;;;;;;;10.05;4.43;;;5.70;96.10;;;;;;10483969;28;20055;-68
2023/12/01 13:11:17;;;;;;;10.45;5.13;;;5.60;96.00;;;;;;10496391;28;20112;-68
2023/12/01 13:16:18;;;;;;;13.40;5.00;;;5.60;96.00;;;;;;10487359;28;20039;-68
2023/12/01 13:21:19;;;;;;;11.60;4.88;;;5.60;95.90;;;;;;10492471;28;20021;-68
2023/12/01 13:26:19;;;;;;;11.25;4.90;;;5.60;95.90;;;;;;10495234;28;20046;-68
2023/12/01 13:31:20;;;;;;;10.63;4.63;;;5.60;95.90;;;;;;10484079;28;20107;-68
2023/12/01 13:36:21;;;;;;;10.90;4.47;;;5.70;95.90;;;;;;10482649;28;20039;-67
2023/12/01 13:41:21;;;;;;;10.60;4.50;;;5.70;95.80;;;;;;10480433;28;20457;-68
2023/12/01 13:46:22;;;;;;;9.85;4.32;;;5.70;95.80;;;;;;10494870;28;20028;-68
2023/12/01 13:51:24;;;;;;;9.07;4.38;;;6.30;96.00;;;;;;10485113;28;20020;-67
2023/12/01 13:56:25;;;;;;;8.55;4.35;;;5.60;95.80;;;;;;10485705;28;20028;-68
2023/12/01 14:01:25;;;;;;;9.40;4.20;;;5.70;95.80;;;;;;10480873;28;20427;-67
2023/12/01 14:06:26;;;;;;;9.00;4.32;;;5.70;95.80;;;;;;10488276;28;20377;-67
2023/12/01 14:11:26;;;;;;;9.80;4.22;;;5.60;95.80;;;;;;10473005;28;20036;-68
2023/12/01 14:16:27;;;;;;;10.38;4.80;;;5.60;95.80;;;;;;10485190;28;20075;-67
2023/12/01 14:21:28;;;;;;;10.45;4.93;;;5.60;95.80;;;;;;10480055;28;20024;-68
2023/12/01 14:26:28;;;;;;;9.90;4.00;;;5.60;95.80;;;;;;10485407;28;20029;-67
2023/12/01 14:31:29;;;;;;;8.70;4.28;;;5.60;95.90;;;;;;10473509;28;20123;-68
2023/12/01 14:36:30;;;;;;;11.02;4.20;;;5.60;95.90;;;;;;10472060;28;20117;-68
2023/12/01 14:41:30;;;;;;;8.32;3.80;;;5.60;96.00;;;;;;10475232;28;20089;-68
2023/12/01 14:46:31;;;;;;;6.75;3.63;;;5.50;96.00;;;;;;10468376;28;20478;-69
2023/12/01 14:51:32;;;;;;;11.38;5.05;;;5.50;96.00;;;;;;10486671;28;20436;-68
2023/12/01 14:56:35;;;;;;;8.73;3.90;;;5.50;96.00;;;;;;10482746;28;20395;-68
2023/12/01 15:01:36;;;;;;;10.98;4.85;;;5.50;96.00;;;;;;10485314;28;20488;-68
2023/12/01 15:06:37;;;;;;;8.35;4.50;;;6.30;96.30;;;;;;10483257;28;20033;-68
2023/12/01 15:11:41;;;;;;;9.10;4.43;;;5.40;96.00;;;;;;10477950;28;20045;-68
2023/12/01 15:16:42;;;;;;;7.78;3.92;;;5.40;96.00;;;;;;10486367;28;20062;-68
2023/12/01 15:21:42;;;;;;;9.35;4.65;;;5.40;96.00;;;;;;10476994;28;20480;-68
2023/12/01 15:26:45;;;;;;;9.48;4.07;;;5.30;96.00;;;;;;10476066;28;20465;-68
2023/12/01 15:31:45;;;;;;;7.78;4.05;;;5.30;96.00;;;;;;10471833;28;20046;-68
2023/12/01 15:36:46;;;;;;;8.30;4.10;;;5.30;96.00;;;;;;10483735;28;20105;-68
2023/12/01 15:41:47;;;;;;;8.00;3.53;;;5.30;96.00;;;;;;10478886;28;20111;-68
2023/12/01 15:46:47;;;;;;;7.45;4.10;;;5.30;96.00;;;;;;10470723;28;20020;-68
2023/12/01 15:51:49;;;;;;;9.90;4.40;;;5.30;96.00;;;;;;10479752;28;20032;-68
2023/12/01 15:56:50;;;;;;;8.35;4.20;;;5.30;96.00;;;;;;10470287;28;20029;-68
2023/12/01 16:01:51;;;;;;;11.80;4.88;;;5.20;96.00;;;;;;10470195;28;20021;-67
2023/12/01 16:06:51;;;;;;;9.40;4.00;;;5.20;95.90;;;;;;10475494;28;20389;-67
2023/12/01 16:11:52;;;;;;;10.25;4.20;;;5.20;95.90;;;;;;10482660;28;20044;-67
2023/12/01 16:16:53;;;;;;;7.97;4.03;;;5.20;95.90;;;;;;10476902;28;20436;-68
2023/12/01 16:21:54;;;;;;;9.43;4.68;;;5.20;95.90;;;;;;10489237;28;20028;-68
2023/12/01 16:26:55;;;;;;;8.13;4.50;;;5.20;95.90;;;;;;10473258;28;20098;-68
2023/12/01 16:31:56;;;;;;;11.32;5.10;;;5.20;95.90;;;;;;10474488;28;20054;-69
2023/12/01 16:36:56;;;;;;;10.25;4.63;;;5.20;95.90;;;;;;10479969;28;20036;-68
2023/12/01 16:41:57;;;;;;;11.07;5.13;;;5.10;95.80;;;;;;10487002;28;20094;-68
2023/12/01 16:46:58;;;;;;;11.18;4.78;;;5.10;95.90;;;;;;10475323;28;20564;-68
2023/12/01 16:51:59;;;;;;;9.43;5.20;;;5.00;95.80;;;;;;10481353;28;20025;-68
2023/12/01 16:56:59;;;;;;;11.65;5.18;;;5.00;95.80;;;;;;10471429;28;20039;-72
2023/12/01 17:02:00;;;;;;;11.50;4.80;;;5.00;95.90;;;;;;10477474;28;20016;-68
2023/12/01 17:07:00;;;;;;;10.07;5.03;;;5.00;95.80;;;;;;10470698;28;20517;-67
2023/12/01 17:12:01;;;;;;;9.32;5.03;;;5.00;95.80;;;;;;10466601;28;20035;-68
2023/12/01 17:17:02;;;;;;;9.15;4.57;;;5.00;95.90;;;;;;10481549;28;20027;-68
2023/12/01 17:22:03;;;;;;;13.73;4.85;;;5.00;95.80;;;;;;10477782;28;20112;-68
2023/12/01 17:27:04;;;;;;;8.75;4.20;;;5.00;95.80;;;;;;10480512;28;20056;-68
2023/12/01 17:32:06;;;;;;;9.98;4.63;;;5.00;95.80;;;;;;10482679;28;20017;-69
2023/12/01 17:37:07;;;;;;;9.82;4.90;;;5.00;95.70;;;;;;10474854;28;20031;-68
2023/12/01 17:42:08;;;;;;;10.38;5.25;;;5.10;95.70;;;;;;10474620;28;20021;-69
2023/12/01 17:47:08;;;;;;;9.60;3.95;;;5.10;95.70;;;;;;10482062;28;20035;-69
2023/12/01 17:52:09;;;;;;;9.85;5.15;;;5.10;95.90;;;;;;10485835;28;20024;-69
2023/12/01 17:57:09;;;;;;;10.10;4.82;;;5.10;95.70;;;;;;10490048;28;20032;-70
2023/12/01 18:02:10;;;;;;;9.45;4.68;;;5.10;95.70;;;;;;10486517;28;20021;-69
2023/12/01 18:07:11;;;;;;;8.00;4.63;;;5.10;95.60;;;;;;10485888;28;20263;-67
2023/12/01 18:12:11;;;;;;;12.52;5.78;;;5.10;95.60;;;;;;10487607;28;20027;-69
2023/12/01 18:17:12;;;;;;;9.20;4.68;;;5.20;96.10;;;;;;10489073;28;20047;-68
2023/12/01 18:22:13;;;;;;;12.25;5.00;;;5.30;95.80;;;;;;10495825;28;20074;-69
2023/12/01 18:27:15;;;;;;;10.52;4.95;;;5.30;95.70;;;;;;10489081;28;20043;-68
2023/12/01 18:32:16;;;;;;;12.20;5.30;;;5.30;95.80;;;;;;10489276;28;20056;-68
2023/12/01 18:37:17;;;;;;;11.18;5.75;;;5.20;95.80;;;;;;10478616;28;20273;-68
2023/12/01 18:42:17;;;;;;;10.40;5.45;;;5.20;95.80;;;;;;10488644;28;20032;-69
2023/12/01 18:47:18;;;;;;;11.38;5.80;;;5.20;95.80;;;;;;10489538;28;20442;-69
2023/12/01 18:52:18;;;;;;;9.02;4.35;;;5.20;95.80;;;;;;10485826;28;20125;-68
2023/12/01 18:57:19;;;;;;;11.27;5.35;;;5.20;95.80;;;;;;10478503;28;20036;-69
2023/12/01 19:02:20;;;;;;;12.75;5.90;;;5.20;95.80;;;;;;10484805;28;20029;-69
2023/12/01 19:07:20;;;;;;;11.70;5.70;;;5.20;95.80;;;;;;10483213;28;20326;-68
2023/12/01 19:12:22;;;;;;;11.27;5.55;;;5.10;95.70;;;;;;10486493;28;20378;-69
2023/12/01 19:17:22;;;;;;;12.23;5.40;;;5.20;95.70;;;;;;10486608;28;20090;-68
2023/12/01 19:22:23;;;;;;;14.32;5.90;;;5.10;95.70;;;;;;10482353;28;20236;-69
2023/12/01 19:27:26;;;;;;;11.27;5.57;;;5.10;95.70;;;;;;10475716;28;20055;-69
2023/12/01 19:32:27;;;;;;;11.77;5.65;;;5.10;95.70;;;;;;10476046;28;20047;-69
2023/12/01 19:37:27;;;;;;;10.88;5.53;;;5.10;95.70;;;;;;10479978;28;20545;-69
2023/12/01 19:42:28;;;;;;;14.80;6.43;;;5.10;95.70;;;;;;10477442;28;20413;-69
2023/12/01 19:47:29;;;;;;;13.38;6.57;;;5.10;95.70;;;;;;10472709;28;20302;-68
2023/12/01 19:52:29;;;;;;;9.93;4.95;;;5.10;95.70;;;;;;10482085;28;20395;-68
2023/12/01 19:57:30;;;;;;;10.85;6.05;;;5.10;95.70;;;;;;10484458;28;20033;-68
2023/12/01 20:02:30;;;;;;;12.05;5.60;;;5.10;95.70;;;;;;10480150;28;20070;-68
2023/12/01 20:07:31;;;;;;;10.00;5.13;;;5.10;95.70;;;;;;10488589;28;20036;-69
2023/12/01 20:12:32;;;;;;;12.15;5.65;;;5.10;95.70;;;;;;10473249;28;20021;-68
2023/12/01 20:17:33;;;;;;;12.30;6.03;;;5.10;95.60;;;;;;10474055;28;20039;-68
2023/12/01 20:22:33;;;;;;;11.43;5.53;;;5.10;95.70;;;;;;10489663;28;20418;-68
2023/12/01 20:27:34;;;;;;;12.25;5.78;;;5.10;95.60;;;;;;10481828;28;20103;-69
2023/12/01 20:32:35;;;;;;;10.68;5.25;;;5.10;95.70;;;;;;10462794;28;20653;-68
2023/12/01 20:37:36;;;;;;;12.48;5.78;;;5.10;95.60;;;;;;10480026;28;20090;-68
2023/12/01 20:42:36;;;;;;;11.82;5.60;;;5.10;95.60;;;;;;10478360;28;20601;-68
2023/12/01 20:47:37;;;;;;;12.77;5.95;;;5.10;95.60;;;;;;10470025;28;20110;-68
2023/12/01 20:52:39;;;;;;;10.48;5.57;;;5.10;95.60;;;;;;10478800;28;20031;-69
2023/12/01 20:57:40;;;;;;;11.80;5.82;;;5.10;95.60;;;;;;10476516;28;20476;-68
2023/12/01 21:02:41;;;;;;;9.52;5.38;;;5.10;95.60;;;;;;10485039;28;20020;-68
2023/12/01 21:07:41;;;;;;;13.45;5.57;;;5.10;95.60;;;;;;10479499;28;20074;-68
2023/12/01 21:12:42;;;;;;;12.52;6.07;;;5.10;95.60;;;;;;10493706;28;20021;-68
2023/12/01 21:17:42;;;;;;;13.63;5.85;;;5.10;95.60;;;;;;10468606;28;20405;-68
2023/12/01 21:22:43;;;;;;;11.32;5.63;;;5.10;95.60;;;;;;10464652;28;20372;-68
2023/12/01 21:27:43;;;;;;;11.43;6.03;;;5.10;95.60;;;;;;10483033;28;20041;-68
2023/12/01 21:32:44;;;;;;;13.05;6.40;;;5.10;95.60;;;;;;10485230;28;20508;-68
2023/12/01 21:37:45;;;;;;;12.70;5.85;;;5.00;95.60;;;;;;10482427;28;20081;-68
2023/12/01 21:42:46;;;;;;;11.43;6.15;;;5.00;95.60;;;;;;10479509;28;20097;-68
2023/12/01 21:47:47;;;;;;;13.13;5.80;;;5.00;95.60;;;;;;10491917;28;20388;-68
2023/12/01 21:52:47;;;;;;;10.55;5.68;;;5.00;95.60;;;;;;10478249;28;20029;-68
2023/12/01 21:57:51;;;;;;;11.82;5.65;;;5.00;95.60;;;;;;10486134;28;20531;-68
2023/12/01 22:02:52;;;;;;;10.88;5.95;;;5.00;95.60;;;;;;10486025;28;20500;-68
2023/12/01 22:07:53;;;;;;;14.85;6.72;;;5.00;95.60;;;;;;10483716;28;20032;-67
2023/12/01 22:12:53;;;;;;;14.05;5.88;;;5.00;95.60;;;;;;10491112;28;20024;-67
2023/12/01 22:17:54;;;;;;;11.38;6.10;;;5.00;95.60;;;;;;10489061;28;20715;-68
2023/12/01 22:22:55;;;;;;;10.90;5.60;;;5.00;95.60;;;;;;10489830;28;20029;-68
2023/12/01 22:27:55;;;;;;;12.48;5.85;;;5.00;95.60;;;;;;10498028;28;20031;-68
2023/12/01 22:32:56;;;;;;;12.82;6.30;;;5.00;95.80;;;;;;10494606;28;20036;-68
2023/12/01 22:37:56;;;;;;;11.82;5.88;;;5.00;95.60;;;;;;10488913;28;20026;-67
2023/12/01 22:42:57;;;;;;;12.52;5.88;;;5.00;95.60;;;;;;10478549;28;20058;-68
2023/12/01 22:47:57;;;;;;;11.82;6.63;;;5.00;95.60;;;;;;10489992;28;20063;-67
2023/12/01 22:52:58;;;;;;;12.00;6.53;;;5.00;95.60;;;;;;10495938;28;20012;-68
2023/12/01 22:57:58;;;;;;;15.55;6.85;;;5.00;95.60;;;;;;10477865;28;20081;-68
2023/12/01 23:02:59;;;;;;;13.63;6.28;;;5.00;95.60;;;;;;10488836;28;20074;-68
2023/12/01 23:08:00;;;;;;;11.88;5.90;;;5.00;95.60;;;;;;10475997;28;20024;-68
2023/12/01 23:13:01;;;;;;;17.30;6.47;;;5.00;95.60;;;;;;10476180;28;20039;-70
2023/12/01 23:18:01;;;;;;;12.55;6.40;;;5.00;95.60;;;;;;10478016;28;20484;-70
2023/12/01 23:23:02;;;;;;;13.82;6.63;;;5.00;95.60;;;;;;10476741;28;20434;-70
2023/12/01 23:28:03;;;;;;;10.35;5.53;;;5.00;95.60;;;;;;10469868;28;20025;-70
2023/12/01 23:33:03;;;;;;;12.20;6.05;;;5.00;95.60;;;;;;10477258;28;20028;-70
2023/12/01 23:38:04;;;;;;;12.25;6.32;;;5.00;95.60;;;;;;10470281;28;20107;-70
2023/12/01 23:43:04;;;;;;;13.38;6.18;;;5.00;95.60;;;;;;10470692;28;20020;-70
2023/12/01 23:48:05;;;;;;;12.15;6.50;;;5.00;95.60;;;;;;10474788;28;20540;-70
2023/12/01 23:53:06;;;;;;;13.43;6.68;;;5.00;95.50;;;;;;10485547;28;20033;-70
2023/12/01 23:58:06;;;;;;;12.95;6.45;;;5.00;95.60;;;;;;10466009;28;20017;-70
